createdAt,value
2022-08-26T00:00:59.543Z,101690.75
2022-08-26T00:03:26.593Z,101688.22
2022-08-26T00:05:54.254Z,101689.03
2022-08-26T00:08:21.282Z,101694.09
2022-08-26T00:10:47.874Z,101694.09
2022-08-26T00:13:15.666Z,101695.38
2022-08-26T00:15:47.012Z,101691.63
2022-08-26T00:18:22.394Z,101691.41
2022-08-26T00:20:50.048Z,101693.75
2022-08-26T00:23:17.866Z,101686.41
2022-08-26T00:25:44.512Z,101697.06
2022-08-26T00:28:11.900Z,101696.13
2022-08-26T00:30:39.191Z,101695.28
2022-08-26T00:33:06.329Z,101690.16
2022-08-26T00:35:35.221Z,101693.56
2022-08-26T00:38:03.021Z,101692.19
2022-08-26T00:40:36.875Z,101687.63
2022-08-26T00:43:07.012Z,101694.78
2022-08-26T00:45:45.535Z,101683.72
2022-08-26T00:48:15.901Z,101678.13
2022-08-26T00:50:52.732Z,101677.22
2022-08-26T00:53:24.173Z,101694.25
2022-08-26T00:56:02.736Z,101700.69
2022-08-26T00:58:32.957Z,101703.13
2022-08-26T01:01:00.753Z,101698.34
2022-08-26T01:03:29.102Z,101702.16
2022-08-26T01:05:57.939Z,101702.72
2022-08-26T01:08:24.934Z,101698.91
2022-08-26T01:10:54.936Z,101691.44
2022-08-26T01:13:23.118Z,101687.94
2022-08-26T01:15:55.685Z,101686.88
2022-08-26T01:18:22.848Z,101685.50
2022-08-26T01:21:04.486Z,101685.16
2022-08-26T01:23:35.706Z,101678.03
2022-08-26T01:26:19.694Z,101687.44
2022-08-26T01:28:50.656Z,101680.13
2022-08-26T01:31:22.147Z,101679.47
2022-08-26T01:33:57.141Z,101677.03
2022-08-26T01:36:24.302Z,101683.69
2022-08-26T01:38:51.345Z,101681.72
2022-08-26T01:41:20.012Z,101687.66
2022-08-26T01:43:56.542Z,101688.22
2022-08-26T01:46:26.857Z,101687.41
2022-08-26T01:48:55.251Z,101690.56
2022-08-26T01:51:25.106Z,101684.88
2022-08-26T01:53:51.863Z,101678.13
2022-08-26T01:56:22.226Z,101689.09
2022-08-26T01:58:54.614Z,101686.66
2022-08-26T02:01:23.974Z,101685.84
2022-08-26T02:04:17.436Z,101678.84
2022-08-26T02:06:45.172Z,101689.81
2022-08-26T02:09:12.054Z,101689.44
2022-08-26T02:11:38.809Z,101693.16
2022-08-26T02:14:19.206Z,101692.34
2022-08-26T02:16:47.000Z,101700.19
2022-08-26T02:19:17.696Z,101683.97
2022-08-26T02:21:51.226Z,101685.13
2022-08-26T02:24:27.957Z,101689.34
2022-08-26T02:26:56.215Z,101691.00
2022-08-26T02:29:24.893Z,101691.47
2022-08-26T02:31:52.962Z,101693.31
2022-08-26T02:34:23.443Z,101691.13
2022-08-26T02:36:50.777Z,101690.53
2022-08-26T02:39:22.394Z,101682.00
2022-08-26T02:41:49.884Z,101687.16
2022-08-26T02:44:16.399Z,101690.31
2022-08-26T02:46:47.247Z,101689.25
2022-08-26T02:49:15.104Z,101677.72
2022-08-26T02:51:43.000Z,101675.50
2022-08-26T02:54:09.851Z,101681.34
2022-08-26T02:56:36.443Z,101674.34
2022-08-26T02:59:03.275Z,101669.00
2022-08-26T03:01:34.520Z,101671.56
2022-08-26T03:04:03.445Z,101679.84
2022-08-26T03:06:30.350Z,101679.28
2022-08-26T03:08:57.640Z,101670.06
2022-08-26T03:11:25.529Z,101675.69
2022-08-26T03:13:55.506Z,101682.91
2022-08-26T03:16:22.124Z,101677.22
2022-08-26T03:18:52.361Z,101688.97
2022-08-26T03:21:20.071Z,101682.22
2022-08-26T03:23:47.865Z,101687.91
2022-08-26T03:26:16.135Z,101678.81
2022-08-26T03:29:01.361Z,101679.63
2022-08-26T03:31:29.697Z,101683.13
2022-08-26T03:33:59.678Z,101682.31
2022-08-26T03:36:26.691Z,101681.03
2022-08-26T03:38:53.541Z,101683.25
2022-08-26T03:41:21.374Z,101677.88
2022-08-26T03:43:50.694Z,101683.25
2022-08-26T03:46:19.343Z,101690.81
2022-08-26T03:48:46.374Z,101692.44
2022-08-26T03:51:18.404Z,101698.84
2022-08-26T03:53:47.226Z,101686.97
2022-08-26T03:56:15.093Z,101686.16
2022-08-26T03:58:42.782Z,101690.94
2022-08-26T04:01:11.311Z,101685.00
2022-08-26T04:03:56.790Z,101688.72
2022-08-26T04:06:36.783Z,101687.91
2022-08-26T04:09:09.994Z,101681.75
2022-08-26T04:11:39.478Z,101680.69
2022-08-26T04:14:14.176Z,101682.31
2022-08-26T04:16:44.607Z,101679.63
2022-08-26T04:19:13.126Z,101682.09
2022-08-26T04:21:41.255Z,101676.03
2022-08-26T04:24:12.095Z,101671.13
2022-08-26T04:26:42.698Z,101675.94
2022-08-26T04:29:13.689Z,101673.25
2022-08-26T04:31:41.309Z,101666.50
2022-08-26T04:34:08.394Z,101675.59
2022-08-26T04:36:37.761Z,101677.66
2022-08-26T04:39:05.360Z,101675.72
2022-08-26T04:41:32.677Z,101673.03
2022-08-26T04:43:59.327Z,101672.44
2022-08-26T04:46:25.981Z,101677.56
2022-08-26T04:48:54.008Z,101680.25
2022-08-26T04:51:27.258Z,101680.47
2022-08-26T04:53:58.744Z,101684.22
2022-08-26T04:56:27.780Z,101685.84
2022-08-26T04:58:55.301Z,101688.28
2022-08-26T05:01:22.051Z,101695.28
2022-08-26T05:03:50.879Z,101695.84
2022-08-26T05:06:19.551Z,101692.59
2022-08-26T05:08:46.319Z,101707.38
2022-08-26T05:11:13.514Z,101706.78
2022-08-26T05:13:40.337Z,101701.22
2022-08-26T05:16:11.851Z,101702.84
2022-08-26T05:18:39.544Z,101692.25
2022-08-26T05:21:07.452Z,101702.97
2022-08-26T05:23:36.021Z,101709.38
2022-08-26T05:26:06.957Z,101710.19
2022-08-26T05:28:34.840Z,101714.72
2022-08-26T05:31:02.124Z,101714.47
2022-08-26T05:33:29.450Z,101713.41
2022-08-26T05:35:56.025Z,101719.63
2022-08-26T05:38:23.492Z,101716.34
2022-08-26T05:40:52.544Z,101713.31
2022-08-26T05:43:21.359Z,101727.88
2022-08-26T05:45:49.802Z,101723.31
2022-08-26T05:48:22.540Z,101725.44
2022-08-26T05:50:51.590Z,101735.09
2022-08-26T05:53:20.783Z,101733.00
2022-08-26T05:55:49.876Z,101731.59
2022-08-26T05:58:20.081Z,101735.56
2022-08-26T06:00:56.652Z,101737.41
2022-08-26T06:03:23.197Z,101727.78
2022-08-26T06:05:49.666Z,101737.66
2022-08-26T06:08:16.473Z,101735.22
2022-08-26T06:10:59.732Z,101734.50
2022-08-26T06:13:27.658Z,101740.69
2022-08-26T06:15:59.747Z,101745.81
2022-08-26T06:18:34.866Z,101749.06
2022-08-26T06:21:14.401Z,101749.06
2022-08-26T06:24:00.436Z,101748.22
2022-08-26T06:26:27.918Z,101750.00
2022-08-26T06:28:55.583Z,101757.78
2022-08-26T06:31:23.233Z,101756.16
2022-08-26T06:33:50.671Z,101754.88
2022-08-26T06:36:22.794Z,101751.84
2022-08-26T06:38:51.143Z,101762.56
2022-08-26T06:41:20.986Z,101758.84
2022-08-26T06:43:47.529Z,101759.44
2022-08-26T06:46:17.200Z,101755.78
2022-08-26T06:48:45.179Z,101765.47
2022-08-26T06:51:18.040Z,101766.16
2022-08-26T06:53:46.980Z,101758.31
2022-08-26T06:56:17.594Z,101762.28
2022-08-26T06:58:44.703Z,101761.13
2022-08-26T07:01:31.919Z,101765.56
2022-08-26T07:04:00.557Z,101764.97
2022-08-26T07:06:28.416Z,101772.53
2022-08-26T07:09:04.717Z,101774.63
2022-08-26T07:11:32.699Z,101778.56
2022-08-26T07:13:59.297Z,101784.19
2022-08-26T07:16:29.190Z,101781.63
2022-08-26T07:18:56.905Z,101787.94
2022-08-26T07:21:24.537Z,101794.69
2022-08-26T07:23:54.628Z,101788.63
2022-08-26T07:26:27.498Z,101788.28
2022-08-26T07:28:56.622Z,101793.06
2022-08-26T07:31:26.583Z,101797.38
2022-08-26T07:33:53.905Z,101798.53
2022-08-26T07:36:21.761Z,101802.59
2022-08-26T07:38:48.222Z,101799.56
2022-08-26T07:41:17.384Z,101814.03
2022-08-26T07:43:45.478Z,101804.13
2022-08-26T07:46:18.439Z,101824.50
2022-08-26T07:48:49.237Z,101817.53
2022-08-26T07:51:18.595Z,101816.72
2022-08-26T07:53:48.079Z,101824.50
2022-08-26T07:56:19.439Z,101820.91
2022-08-26T07:58:50.885Z,101829.75
2022-08-26T08:01:19.970Z,101827.31
2022-08-26T08:03:46.521Z,101830.56
2022-08-26T08:06:18.899Z,101826.00
2022-08-26T08:08:46.344Z,101830.09
2022-08-26T08:11:14.369Z,101828.69
2022-08-26T08:13:41.281Z,101836.16
2022-08-26T08:16:17.055Z,101830.00
2022-08-26T08:18:43.533Z,101825.78
2022-08-26T08:21:21.753Z,101821.25
2022-08-26T08:23:50.113Z,101818.78
2022-08-26T08:26:16.879Z,101817.50
2022-08-26T08:28:43.566Z,101821.25
2022-08-26T08:31:21.626Z,101816.69
2022-08-26T08:33:59.838Z,101816.69
2022-08-26T08:36:26.384Z,101818.56
2022-08-26T08:39:02.671Z,101823.44
2022-08-26T08:41:48.693Z,101827.41
2022-08-26T08:44:20.011Z,101832.66
2022-08-26T08:46:54.456Z,101838.63
2022-08-26T08:49:21.789Z,101832.41
2022-08-26T08:51:51.232Z,101839.88
2022-08-26T08:54:19.546Z,101837.91
2022-08-26T08:56:53.162Z,101839.78
2022-08-26T08:59:21.503Z,101839.53
2022-08-26T09:02:13.821Z,101831.03
2022-08-26T09:05:08.969Z,101839.16
2022-08-26T09:08:06.629Z,101848.50
2022-08-26T09:10:38.331Z,101850.25
2022-08-26T09:13:16.378Z,101845.13
2022-08-26T09:16:02.781Z,101838.69
2022-08-26T09:18:51.061Z,101840.91
2022-08-26T09:21:19.253Z,101852.88
2022-08-26T09:23:49.710Z,101852.19
2022-08-26T09:26:40.942Z,101847.81
2022-08-26T09:31:48.055Z,101847.84
2022-08-26T09:34:25.665Z,101854.84
2022-08-26T09:36:53.633Z,101852.69
2022-08-26T09:39:38.647Z,101858.63
2022-08-26T09:42:22.588Z,101851.16
2022-08-26T09:45:00.755Z,101855.63
2022-08-26T09:47:34.038Z,101857.25
2022-08-26T09:50:31.706Z,101859.66
2022-08-26T09:53:14.473Z,101851.03
2022-08-26T09:55:43.887Z,101851.72
2022-08-26T09:58:35.231Z,101865.63
2022-08-26T10:01:07.764Z,101856.66
2022-08-26T10:03:37.688Z,101853.97
2022-08-26T10:06:07.786Z,101858.19
2022-08-26T10:08:38.621Z,101861.00
2022-08-26T10:11:18.226Z,101853.97
2022-08-26T10:13:51.344Z,101855.94
2022-08-26T10:16:19.723Z,101852.34
2022-08-26T10:19:17.456Z,101854.22
2022-08-26T10:21:49.820Z,101849.41
2022-08-26T10:24:25.998Z,101856.28
2022-08-26T10:27:07.709Z,101844.88
2022-08-26T10:29:46.293Z,101839.50
2022-08-26T10:32:31.113Z,101849.16
2022-08-26T10:34:57.813Z,101846.00
2022-08-26T10:37:32.984Z,101848.47
2022-08-26T10:40:16.636Z,101848.63
2022-08-26T10:42:48.409Z,101841.09
2022-08-26T10:45:21.978Z,101846.03
2022-08-26T10:48:11.271Z,101853.38
2022-08-26T10:50:47.772Z,101852.13
2022-08-26T10:53:25.243Z,101860.25
2022-08-26T10:56:02.146Z,101862.09
2022-08-26T10:58:46.757Z,101856.94
2022-08-26T11:01:46.879Z,101858.50
2022-08-26T11:04:23.763Z,101851.53
2022-08-26T11:07:30.126Z,101860.19
2022-08-26T11:10:03.007Z,101854.69
2022-08-26T11:12:36.054Z,101861.63
2022-08-26T11:15:05.104Z,101857.00
2022-08-26T11:17:44.144Z,101859.50
2022-08-26T11:20:23.717Z,101848.38
2022-08-26T11:22:53.168Z,101856.78
2022-08-26T11:25:24.428Z,101851.22
2022-08-26T11:27:58.013Z,101847.56
2022-08-26T11:30:25.092Z,101857.22
2022-08-26T11:32:55.859Z,101857.53
2022-08-26T11:35:24.315Z,101852.16
2022-08-26T11:37:58.459Z,101869.28
2022-08-26T11:40:32.151Z,101864.88
2022-08-26T11:43:06.117Z,101858.06
2022-08-26T11:45:39.984Z,101869.56
2022-08-26T11:48:30.553Z,101868.97
2022-08-26T11:51:01.275Z,101873.03
2022-08-26T11:53:32.638Z,101861.59
2022-08-26T11:56:04.078Z,101857.59
2022-08-26T11:58:31.354Z,101856.63
2022-08-26T12:01:03.493Z,101857.59
2022-08-26T12:03:57.797Z,101852.41
2022-08-26T12:06:30.185Z,101848.75
2022-08-26T12:08:59.993Z,101854.22
2022-08-26T12:11:33.329Z,101863.13
2022-08-26T12:14:21.530Z,101857.13
2022-08-26T12:16:48.554Z,101865.72
2022-08-26T12:19:41.997Z,101869.03
2022-08-26T12:22:21.595Z,101866.00
2022-08-26T12:24:51.943Z,101858.97
2022-08-26T12:27:23.722Z,101860.22
2022-08-26T12:30:14.652Z,101861.94
2022-08-26T12:32:51.025Z,101858.94
2022-08-26T12:35:25.292Z,101859.47
2022-08-26T12:37:53.820Z,101867.31
2022-08-26T12:40:43.275Z,101873.31
2022-08-26T12:43:14.532Z,101868.47
2022-08-26T12:45:44.735Z,101870.00
2022-08-26T12:48:21.426Z,101877.97
2022-08-26T12:50:52.210Z,101877.50
2022-08-26T12:53:18.658Z,101880.13
2022-08-26T12:55:54.592Z,101884.44
2022-08-26T12:58:23.564Z,101890.50
2022-08-26T13:00:53.949Z,101884.25
2022-08-26T13:03:40.265Z,101884.59
2022-08-26T13:06:29.829Z,101874.91
2022-08-26T13:08:59.683Z,101879.78
2022-08-26T13:11:28.222Z,101874.75
2022-08-26T13:14:01.059Z,101874.75
2022-08-26T13:16:28.963Z,101873.56
2022-08-26T13:19:01.196Z,101874.91
2022-08-26T13:21:29.558Z,101877.44
2022-08-26T13:24:11.746Z,101874.47
2022-08-26T13:26:40.035Z,101868.38
2022-08-26T13:29:10.224Z,101868.81
2022-08-26T13:31:39.815Z,101869.00
2022-08-26T13:34:08.262Z,101864.72
2022-08-26T13:36:34.810Z,101869.59
2022-08-26T13:39:01.300Z,101850.50
2022-08-26T13:41:29.079Z,101858.53
2022-08-26T13:43:59.495Z,101860.97
2022-08-26T13:46:28.022Z,101863.16
2022-08-26T13:48:55.705Z,101862.28
2022-08-26T13:51:22.841Z,101859.22
2022-08-26T13:53:50.735Z,101863.22
2022-08-26T13:56:18.764Z,101859.31
2022-08-26T13:58:46.246Z,101871.31
2022-08-26T14:01:13.448Z,101870.34
2022-08-26T14:03:40.166Z,101871.31
2022-08-26T14:06:06.743Z,101867.84
2022-08-26T14:08:33.323Z,101864.25
2022-08-26T14:11:00.362Z,101869.97
2022-08-26T14:13:27.177Z,101864.47
2022-08-26T14:15:54.097Z,101869.28
2022-08-26T14:18:26.408Z,101868.47
2022-08-26T14:20:55.077Z,101860.94
2022-08-26T14:23:22.616Z,101871.97
2022-08-26T14:25:49.283Z,101870.88
2022-08-26T14:28:15.960Z,101865.13
2022-08-26T14:30:44.752Z,101868.78
2022-08-26T14:33:14.512Z,101856.41
2022-08-26T14:35:43.705Z,101855.41
2022-08-26T14:38:16.690Z,101854.53
2022-08-26T14:40:45.003Z,101852.88
2022-08-26T14:43:15.205Z,101859.94
2022-08-26T14:45:45.132Z,101853.44
2022-08-26T14:48:11.627Z,101854.13
2022-08-26T14:50:38.358Z,101842.06
2022-08-26T14:53:23.411Z,101850.91
2022-08-26T14:55:50.468Z,101851.34
2022-08-26T14:58:17.126Z,101852.97
2022-08-26T15:00:43.906Z,101840.25
2022-08-26T15:03:10.508Z,101844.41
2022-08-26T15:05:37.264Z,101843.41
2022-08-26T15:08:10.193Z,101845.03
2022-08-26T15:10:37.328Z,101838.25
2022-08-26T15:13:03.982Z,101841.72
2022-08-26T15:15:30.509Z,101836.19
2022-08-26T15:17:57.264Z,101846.03
2022-08-26T15:20:24.062Z,101851.41
2022-08-26T15:22:50.677Z,101855.50
2022-08-26T15:25:18.088Z,101846.13
2022-08-26T15:27:44.675Z,101843.13
2022-08-26T15:30:12.337Z,101845.06
2022-08-26T15:32:38.964Z,101839.47
2022-08-26T15:35:09.085Z,101842.38
2022-08-26T15:37:36.222Z,101842.88
2022-08-26T15:40:03.602Z,101833.50
2022-08-26T15:42:30.197Z,101830.28
2022-08-26T15:44:56.775Z,101826.69
2022-08-26T15:47:23.766Z,101821.97
2022-08-26T15:49:50.497Z,101830.75
2022-08-26T15:52:17.448Z,101827.09
2022-08-26T15:54:43.925Z,101826.50
2022-08-26T15:57:12.318Z,101829.72
2022-08-26T15:59:40.219Z,101831.66
2022-08-26T16:02:07.411Z,101831.75
2022-08-26T16:04:34.352Z,101829.56
2022-08-26T16:07:01.219Z,101829.19
2022-08-26T16:09:28.726Z,101829.03
2022-08-26T16:11:56.513Z,101838.69
2022-08-26T16:14:23.839Z,101827.88
2022-08-26T16:16:51.172Z,101839.16
2022-08-26T16:19:18.019Z,101836.09
2022-08-26T16:21:45.280Z,101831.91
2022-08-26T16:24:12.584Z,101828.09
2022-08-26T16:26:41.288Z,101836.25
2022-08-26T16:29:10.673Z,101832.66
2022-08-26T16:31:38.295Z,101828.94
2022-08-26T16:34:05.479Z,101833.81
2022-08-26T16:36:31.992Z,101837.88
2022-08-26T16:38:58.562Z,101842.00
2022-08-26T16:41:27.844Z,101836.88
2022-08-26T16:43:54.643Z,101837.94
2022-08-26T16:46:25.518Z,101847.59
2022-08-26T16:48:54.490Z,101844.66
2022-08-26T16:51:23.046Z,101851.56
2022-08-26T16:53:51.194Z,101851.72
2022-08-26T16:56:20.731Z,101854.16
2022-08-26T16:58:50.635Z,101849.03
2022-08-26T17:01:17.707Z,101848.91
2022-08-26T17:03:44.249Z,101853.94
2022-08-26T17:06:11.110Z,101855.00
2022-08-26T17:08:38.733Z,101858.25
2022-08-26T17:11:05.416Z,101851.06
2022-08-26T17:13:35.084Z,101857.66
2022-08-26T17:16:04.229Z,101855.53
2022-08-26T17:18:31.492Z,101862.56
2022-08-26T17:21:02.235Z,101853.09
2022-08-26T17:23:28.920Z,101858.47
2022-08-26T17:25:55.539Z,101865.69
2022-08-26T17:28:22.030Z,101860.00
2022-08-26T17:30:48.600Z,101859.31
2022-08-26T17:33:15.110Z,101862.03
2022-08-26T17:35:45.447Z,101867.97
2022-08-26T17:38:11.945Z,101868.44
2022-08-26T17:40:39.183Z,101866.81
2022-08-26T17:43:10.311Z,101863.44
2022-08-26T17:45:40.249Z,101872.88
2022-08-26T17:48:07.337Z,101871.47
2022-08-26T17:50:34.065Z,101881.38
2022-08-26T17:53:00.556Z,101878.91
2022-08-26T17:55:27.084Z,101872.28
2022-08-26T17:57:54.021Z,101877.53
2022-08-26T18:00:26.280Z,101884.72
2022-08-26T18:02:54.451Z,101882.66
2022-08-26T18:05:22.290Z,101889.28
2022-08-26T18:07:49.015Z,101889.97
2022-08-26T18:10:17.463Z,101894.53
2022-08-26T18:12:45.187Z,101896.75
2022-08-26T18:15:15.476Z,101891.59
2022-08-26T18:17:42.129Z,101885.31
2022-08-26T18:20:12.422Z,101880.97
2022-08-26T18:22:39.029Z,101893.00
2022-08-26T18:25:06.959Z,101894.50
2022-08-26T18:27:35.553Z,101889.38
2022-08-26T18:30:10.508Z,101891.13
2022-08-26T18:32:39.098Z,101893.19
2022-08-26T18:35:06.012Z,101893.91
2022-08-26T18:37:32.702Z,101901.22
2022-08-26T18:39:59.535Z,101895.50
2022-08-26T18:42:26.950Z,101891.66
2022-08-26T18:44:53.866Z,101898.97
2022-08-26T18:47:20.744Z,101898.34
2022-08-26T18:49:47.623Z,101904.31
2022-08-26T18:52:14.916Z,101903.03
2022-08-26T18:54:41.476Z,101904.56
2022-08-26T18:57:08.177Z,101908.66
2022-08-26T18:59:34.704Z,101909.16
2022-08-26T19:02:01.310Z,101916.69
2022-08-26T19:04:27.930Z,101911.59
2022-08-26T19:06:54.563Z,101914.03
2022-08-26T19:09:21.106Z,101921.25
2022-08-26T19:11:49.802Z,101920.81
2022-08-26T19:14:16.838Z,101918.97
2022-08-26T19:16:45.645Z,101924.97
2022-08-26T19:19:13.316Z,101925.72
2022-08-26T19:21:39.928Z,101918.50
2022-08-26T19:24:15.569Z,101927.59
2022-08-26T19:26:51.409Z,101924.31
2022-08-26T19:29:26.426Z,101924.91
2022-08-26T19:31:52.869Z,101930.91
2022-08-26T19:34:20.875Z,101932.63
2022-08-26T19:36:48.414Z,101921.56
2022-08-26T19:39:14.976Z,101925.38
2022-08-26T19:41:41.486Z,101925.00
2022-08-26T19:44:33.767Z,101934.44
2022-08-26T19:47:00.373Z,101939.06
2022-08-26T19:49:26.918Z,101927.75
2022-08-26T19:51:54.137Z,101934.84
2022-08-26T19:54:22.637Z,101929.44
2022-08-26T19:56:49.790Z,101935.00
2022-08-26T19:59:17.406Z,101937.28
2022-08-26T20:01:44.261Z,101939.59
2022-08-26T20:04:10.797Z,101936.53
2022-08-26T20:06:37.278Z,101945.25
2022-08-26T20:09:03.979Z,101944.50
2022-08-26T20:11:31.104Z,101953.94
2022-08-26T20:13:57.563Z,101948.59
2022-08-26T20:16:24.583Z,101942.44
2022-08-26T20:19:09.366Z,101938.28
2022-08-26T20:21:38.166Z,101932.25
2022-08-26T20:24:08.827Z,101925.47
2022-08-26T20:26:38.042Z,101928.38
2022-08-26T20:29:06.503Z,101933.88
2022-08-26T20:31:33.256Z,101935.34
2022-08-26T20:33:59.802Z,101944.25
2022-08-26T20:36:27.831Z,101943.44
2022-08-26T20:38:55.430Z,101941.59
2022-08-26T20:41:24.046Z,101943.88
2022-08-26T20:43:50.469Z,101931.56
2022-08-26T20:46:19.558Z,101940.19
2022-08-26T20:48:48.672Z,101937.91
2022-08-26T20:51:16.887Z,101944.50
2022-08-26T20:53:44.420Z,101937.97
2022-08-26T20:56:13.113Z,101943.50
2022-08-26T20:58:40.017Z,101942.50
2022-08-26T21:01:08.206Z,101939.66
2022-08-26T21:03:36.169Z,101944.69
2022-08-26T21:06:03.516Z,101949.28
2022-08-26T21:08:30.017Z,101947.91
2022-08-26T21:10:59.823Z,101947.81
2022-08-26T21:13:26.288Z,101948.22
2022-08-26T21:15:56.435Z,101952.16
2022-08-26T21:18:23.307Z,101935.34
2022-08-26T21:20:51.539Z,101942.41
2022-08-26T21:23:19.737Z,101946.81
2022-08-26T21:25:47.124Z,101941.94
2022-08-26T21:28:13.642Z,101946.25
2022-08-26T21:30:41.204Z,101947.28
2022-08-26T21:33:09.811Z,101947.94
2022-08-26T21:35:36.274Z,101953.66
2022-08-26T21:38:02.943Z,101953.88
2022-08-26T21:40:30.419Z,101944.06
2022-08-26T21:42:56.995Z,101948.22
2022-08-26T21:45:23.472Z,101951.50
2022-08-26T21:47:49.943Z,101952.13
2022-08-26T21:50:17.164Z,101943.56
2022-08-26T21:52:43.872Z,101947.84
2022-08-26T21:55:11.727Z,101945.81
2022-08-26T21:57:38.400Z,101957.47
2022-08-26T22:00:08.901Z,101948.50
2022-08-26T22:02:36.945Z,101950.75
2022-08-26T22:05:04.208Z,101956.28
2022-08-26T22:07:30.952Z,101947.47
2022-08-26T22:09:57.888Z,101955.25
2022-08-26T22:12:24.492Z,101960.78
2022-08-26T22:14:50.975Z,101961.34
2022-08-26T22:17:17.529Z,101958.31
2022-08-26T22:19:46.317Z,101962.81
2022-08-26T22:22:14.325Z,101964.69
2022-08-26T22:24:40.853Z,101966.09
2022-08-26T22:27:07.417Z,101963.59
2022-08-26T22:29:34.370Z,101962.78
2022-08-26T22:32:01.876Z,101958.69
2022-08-26T22:34:28.610Z,101949.47
2022-08-26T22:36:55.543Z,101965.28
2022-08-26T22:39:24.217Z,101961.97
2022-08-26T22:41:52.330Z,101960.34
2022-08-26T22:44:20.465Z,101957.91
2022-08-26T22:46:47.825Z,101963.31
2022-08-26T22:49:17.995Z,101952.63
2022-08-26T22:51:45.348Z,101951.38
2022-08-26T22:54:12.680Z,101963.72
2022-08-26T22:56:40.362Z,101956.56
2022-08-26T22:59:08.803Z,101951.88
2022-08-26T23:01:37.462Z,101953.09
2022-08-26T23:04:06.282Z,101948.16
2022-08-26T23:06:35.832Z,101949.78
2022-08-26T23:09:02.320Z,101951.88
2022-08-26T23:11:28.790Z,101950.00
2022-08-26T23:13:55.405Z,101948.16
2022-08-26T23:16:21.974Z,101949.78
2022-08-26T23:18:48.539Z,101952.47
2022-08-26T23:21:15.179Z,101949.38
2022-08-26T23:23:41.688Z,101936.44
2022-08-26T23:26:08.310Z,101941.16
2022-08-26T23:28:36.822Z,101936.84
2022-08-26T23:31:04.289Z,101935.59
2022-08-26T23:33:50.961Z,101932.72
2022-08-26T23:36:18.394Z,101931.47
2022-08-26T23:38:53.138Z,101936.81
2022-08-26T23:41:22.103Z,101937.63
2022-08-26T23:43:49.365Z,101943.34
2022-08-26T23:46:16.122Z,101940.09
2022-08-26T23:48:42.627Z,101932.91
2022-08-26T23:51:28.334Z,101932.69
2022-08-26T23:53:54.859Z,101933.69
2022-08-26T23:56:21.351Z,101934.34
2022-08-26T23:58:47.786Z,101930.81
